createdAt,value
2018-11-10T00:00:22.119Z,99462.50
2018-11-10T00:02:52.276Z,99470.51
2018-11-10T00:05:22.918Z,99460.98
2018-11-10T00:07:52.612Z,99462.66
2018-11-10T00:10:22.558Z,99464.52
2018-11-10T00:12:52.187Z,99456.50
2018-11-10T00:15:21.876Z,99463.17
2018-11-10T00:17:51.496Z,99458.66
2018-11-10T00:20:21.179Z,99454.66
2018-11-10T00:22:50.808Z,99454.66
2018-11-10T00:25:20.435Z,99451.50
2018-11-10T00:27:50.092Z,99446.48
2018-11-10T00:30:20.127Z,99434.95
2018-11-10T00:32:49.785Z,99434.47
2018-11-10T00:35:19.411Z,99427.80
2018-11-10T00:37:49.084Z,99425.95
2018-11-10T00:40:18.763Z,99423.78
2018-11-10T00:42:48.462Z,99426.27
2018-11-10T00:45:18.276Z,99419.77
2018-11-10T00:47:47.967Z,99431.27
2018-11-10T00:50:17.644Z,99437.30
2018-11-10T00:52:47.379Z,99436.63
2018-11-10T00:55:17.016Z,99438.63
2018-11-10T00:57:46.695Z,99440.95
2018-11-10T01:00:16.332Z,99435.96
2018-11-10T01:02:46.004Z,99434.47
2018-11-10T01:05:15.712Z,99423.59
2018-11-10T01:07:45.489Z,99426.28
2018-11-10T01:10:15.193Z,99416.58
2018-11-10T01:12:44.868Z,99413.92
2018-11-10T01:15:16.017Z,99413.60
2018-11-10T01:17:45.802Z,99411.24
2018-11-10T01:20:15.635Z,99411.24
2018-11-10T01:22:45.295Z,99405.22
2018-11-10T01:25:14.936Z,99400.37
2018-11-10T01:27:44.717Z,99402.69
2018-11-10T01:30:15.721Z,99395.38
2018-11-10T01:32:46.163Z,99393.67
2018-11-10T01:35:16.228Z,99394.55
2018-11-10T01:37:45.908Z,99387.86
2018-11-10T01:40:15.796Z,99385.34
2018-11-10T01:42:45.631Z,99379.49
2018-11-10T01:45:16.447Z,99373.63
2018-11-10T01:47:46.790Z,99378.17
2018-11-10T01:50:16.443Z,99373.63
2018-11-10T01:52:46.152Z,99367.77
2018-11-10T01:55:15.819Z,99366.14
2018-11-10T01:57:45.486Z,99365.97
2018-11-10T02:00:16.826Z,99356.45
2018-11-10T02:02:47.004Z,99353.59
2018-11-10T02:05:17.364Z,99361.98
2018-11-10T02:07:47.198Z,99353.25
2018-11-10T02:10:17.276Z,99336.41
2018-11-10T02:12:47.258Z,99339.27
2018-11-10T02:15:17.595Z,99336.22
2018-11-10T02:17:47.265Z,99331.88
2018-11-10T02:20:16.894Z,99328.38
2018-11-10T02:22:46.647Z,99324.70
2018-11-10T02:25:16.295Z,99325.51
2018-11-10T02:27:46.077Z,99312.16
2018-11-10T02:30:15.707Z,99306.50
2018-11-10T02:32:45.404Z,99312.88
2018-11-10T02:35:15.056Z,99312.36
2018-11-10T02:37:44.683Z,99308.14
2018-11-10T02:40:15.423Z,99308.13
2018-11-10T02:42:48.860Z,99297.80
2018-11-10T02:45:18.551Z,99289.94
2018-11-10T02:47:48.167Z,99271.36
2018-11-10T02:50:17.801Z,99275.89
2018-11-10T02:52:47.670Z,99263.88
2018-11-10T02:55:17.667Z,99257.33
2018-11-10T02:57:47.354Z,99259.64
2018-11-10T03:00:17.028Z,99256.95
2018-11-10T03:02:46.651Z,99259.83
2018-11-10T03:05:16.333Z,99255.84
2018-11-10T03:07:45.966Z,99257.46
2018-11-10T03:10:15.607Z,99253.78
2018-11-10T03:12:45.303Z,99244.91
2018-11-10T03:15:14.935Z,99244.58
2018-11-10T03:17:44.559Z,99248.41
2018-11-10T03:20:15.431Z,99239.51
2018-11-10T03:22:45.610Z,99235.23
2018-11-10T03:25:15.264Z,99238.51
2018-11-10T03:27:44.935Z,99231.61
2018-11-10T03:30:14.581Z,99240.75
2018-11-10T03:32:44.232Z,99241.73
2018-11-10T03:35:13.893Z,99233.52
2018-11-10T03:37:43.535Z,99233.33
2018-11-10T03:40:13.497Z,99231.99
2018-11-10T03:42:43.172Z,99232.48
2018-11-10T03:45:13.328Z,99227.47
2018-11-10T03:47:42.964Z,99220.18
2018-11-10T03:50:12.858Z,99210.11
2018-11-10T03:52:42.907Z,99206.47
2018-11-10T03:55:12.555Z,99207.48
2018-11-10T03:57:42.220Z,99211.20
2018-11-10T04:00:13.456Z,99212.08
2018-11-10T04:02:46.152Z,99209.59
2018-11-10T04:05:16.161Z,99204.69
2018-11-10T04:07:46.420Z,99199.15
2018-11-10T04:10:16.196Z,99201.49
2018-11-10T04:12:45.844Z,99195.14
2018-11-10T04:15:15.491Z,99198.97
2018-11-10T04:17:45.147Z,99191.38
2018-11-10T04:20:14.780Z,99188.30
2018-11-10T04:22:44.428Z,99185.11
2018-11-10T04:25:14.044Z,99187.74
2018-11-10T04:27:43.699Z,99187.03
2018-11-10T04:30:13.342Z,99182.09
2018-11-10T04:32:43.012Z,99181.42
2018-11-10T04:35:12.657Z,99177.37
2018-11-10T04:37:42.316Z,99174.78
2018-11-10T04:40:11.988Z,99172.97
2018-11-10T04:42:41.706Z,99179.76
2018-11-10T04:45:12.288Z,99178.56
2018-11-10T04:47:41.956Z,99166.67
2018-11-10T04:50:12.516Z,99172.80
2018-11-10T04:52:42.779Z,99157.22
2018-11-10T04:55:13.188Z,99153.69
2018-11-10T04:57:42.867Z,99145.14
2018-11-10T05:00:14.963Z,99142.17
2018-11-10T05:02:45.512Z,99141.27
2018-11-10T05:05:15.176Z,99136.81
2018-11-10T05:07:44.832Z,99144.80
2018-11-10T05:10:14.449Z,99127.40
2018-11-10T05:12:44.096Z,99129.70
2018-11-10T05:15:14.167Z,99127.40
2018-11-10T05:17:43.815Z,99118.71
2018-11-10T05:20:13.467Z,99119.42
2018-11-10T05:22:43.120Z,99124.34
2018-11-10T05:25:12.739Z,99123.77
2018-11-10T05:27:42.391Z,99118.95
2018-11-10T05:30:12.439Z,99116.88
2018-11-10T05:32:42.079Z,99119.75
2018-11-10T05:35:11.687Z,99123.66
2018-11-10T05:37:41.332Z,99121.30
2018-11-10T05:40:11.712Z,99109.67
2018-11-10T05:42:41.652Z,99108.67
2018-11-10T05:45:11.548Z,99109.16
2018-11-10T05:47:41.196Z,99109.25
2018-11-10T05:50:10.918Z,99109.95
2018-11-10T05:52:40.552Z,99106.08
2018-11-10T05:55:10.236Z,99116.60
2018-11-10T05:57:40.446Z,99116.32
2018-11-10T06:00:12.692Z,99110.29
2018-11-10T06:02:42.728Z,99114.18
2018-11-10T06:05:13.039Z,99113.55
2018-11-10T06:07:42.692Z,99124.11
2018-11-10T06:10:12.935Z,99124.83
2018-11-10T06:12:42.936Z,99123.30
2018-11-10T06:15:12.569Z,99124.20
2018-11-10T06:17:42.233Z,99121.87
2018-11-10T06:20:13.068Z,99127.69
2018-11-10T06:22:42.743Z,99122.30
2018-11-10T06:25:12.487Z,99122.77
2018-11-10T06:27:42.160Z,99119.91
2018-11-10T06:30:12.632Z,99113.80
2018-11-10T06:32:42.358Z,99106.80
2018-11-10T06:35:12.160Z,99114.88
2018-11-10T06:37:42.512Z,99105.67
2018-11-10T06:40:13.531Z,99098.31
2018-11-10T06:42:43.883Z,99098.35
2018-11-10T06:45:13.498Z,99100.70
2018-11-10T06:47:43.140Z,99093.00
2018-11-10T06:50:13.040Z,99093.34
2018-11-10T06:52:42.689Z,99099.41
2018-11-10T06:55:12.410Z,99107.28
2018-11-10T06:57:42.067Z,99105.27
2018-11-10T07:00:13.805Z,99104.75
2018-11-10T07:02:43.636Z,99098.59
2018-11-10T07:05:13.632Z,99100.55
2018-11-10T07:07:43.379Z,99106.80
2018-11-10T07:10:13.051Z,99111.01
2018-11-10T07:12:42.733Z,99111.81
2018-11-10T07:15:12.371Z,99117.17
2018-11-10T07:17:42.029Z,99118.17
2018-11-10T07:20:11.683Z,99132.73
2018-11-10T07:22:41.348Z,99132.36
2018-11-10T07:25:11.026Z,99155.28
2018-11-10T07:27:40.709Z,99150.79
2018-11-10T07:30:12.721Z,99164.80
2018-11-10T07:32:43.171Z,99159.11
2018-11-10T07:35:13.775Z,99159.62
2018-11-10T07:37:43.419Z,99168.44
2018-11-10T07:40:13.711Z,99168.62
2018-11-10T07:42:43.380Z,99163.45
2018-11-10T07:45:14.581Z,99177.49
2018-11-10T07:47:44.923Z,99169.95
2018-11-10T07:50:14.589Z,99166.35
2018-11-10T07:52:44.282Z,99165.98
2018-11-10T07:55:15.075Z,99170.55
2018-11-10T07:57:44.738Z,99172.85
2018-11-10T08:00:16.443Z,99163.16
2018-11-10T08:02:46.087Z,99160.48
2018-11-10T08:05:16.205Z,99160.16
2018-11-10T08:07:45.972Z,99157.09
2018-11-10T08:10:16.009Z,99165.45
2018-11-10T08:12:45.679Z,99173.03
2018-11-10T08:15:17.180Z,99171.22
2018-11-10T08:17:46.838Z,99160.81
2018-11-10T08:20:16.451Z,99160.30
2018-11-10T08:22:46.108Z,99161.78
2018-11-10T08:25:16.292Z,99156.25
2018-11-10T08:27:45.940Z,99155.05
2018-11-10T08:30:15.867Z,99162.63
2018-11-10T08:32:45.591Z,99171.33
2018-11-10T08:35:15.701Z,99166.80
2018-11-10T08:37:45.381Z,99175.34
2018-11-10T08:40:16.252Z,99168.13
2018-11-10T08:42:46.078Z,99169.77
2018-11-10T08:45:16.196Z,99164.56
2018-11-10T08:47:45.926Z,99167.95
2018-11-10T08:50:16.499Z,99165.08
2018-11-10T08:52:46.176Z,99156.39
2018-11-10T08:55:15.915Z,99149.37
2018-11-10T08:57:45.683Z,99160.55
2018-11-10T09:00:15.363Z,99154.62
2018-11-10T09:02:45.005Z,99157.28
2018-11-10T09:05:14.703Z,99152.23
2018-11-10T09:07:44.340Z,99142.91
2018-11-10T09:10:14.795Z,99145.55
2018-11-10T09:12:44.431Z,99156.91
2018-11-10T09:15:15.457Z,99143.97
2018-11-10T09:17:45.700Z,99134.44
2018-11-10T09:20:16.416Z,99133.71
2018-11-10T09:22:46.059Z,99123.92
2018-11-10T09:25:16.971Z,99130.66
2018-11-10T09:27:46.659Z,99140.12
2018-11-10T09:30:17.432Z,99126.59
2018-11-10T09:32:47.059Z,99127.79
2018-11-10T09:35:16.719Z,99141.22
2018-11-10T09:37:46.376Z,99131.47
2018-11-10T09:40:16.948Z,99140.54
2018-11-10T09:42:46.796Z,99140.16
2018-11-10T09:45:17.296Z,99136.23
2018-11-10T09:47:46.979Z,99145.38
2018-11-10T09:50:19.339Z,99139.30
2018-11-10T09:52:49.003Z,99149.77
2018-11-10T09:55:19.131Z,99151.77
2018-11-10T09:57:48.842Z,99153.84
2018-11-10T10:00:20.691Z,99145.22
2018-11-10T10:02:50.722Z,99142.41
2018-11-10T10:05:21.879Z,99138.63
2018-11-10T10:07:51.499Z,99138.06
2018-11-10T10:10:21.171Z,99139.87
2018-11-10T10:12:50.834Z,99135.52
2018-11-10T10:15:20.565Z,99141.25
2018-11-10T10:17:50.240Z,99155.88
2018-11-10T10:20:20.548Z,99154.21
2018-11-10T10:22:50.711Z,99144.56
2018-11-10T10:25:20.795Z,99140.13
2018-11-10T10:27:50.977Z,99140.97
2018-11-10T10:30:22.179Z,99138.64
2018-11-10T10:32:51.871Z,99136.25
2018-11-10T10:35:21.669Z,99132.37
2018-11-10T10:37:51.940Z,99127.16
2018-11-10T10:40:21.594Z,99123.62
2018-11-10T10:42:51.377Z,99122.19
2018-11-10T10:45:22.195Z,99123.08
2018-11-10T10:47:51.978Z,99125.05
2018-11-10T10:50:22.636Z,99122.64
2018-11-10T10:52:52.340Z,99124.23
2018-11-10T10:55:22.018Z,99119.41
2018-11-10T10:57:51.875Z,99125.05
2018-11-10T11:00:26.672Z,99129.39
2018-11-10T11:02:58.525Z,99125.98
2018-11-10T11:05:33.184Z,99132.89
2018-11-10T11:08:02.827Z,99137.31
2018-11-10T11:10:32.456Z,99134.31
2018-11-10T11:13:02.155Z,99125.41
2018-11-10T11:15:31.988Z,99128.69
2018-11-10T11:18:01.455Z,99119.31
2018-11-10T11:20:31.138Z,99124.39
2018-11-10T11:23:00.780Z,99122.81
2018-11-10T11:25:30.411Z,99114.31
2018-11-10T11:28:00.092Z,99115.19
2018-11-10T11:30:29.728Z,99107.53
2018-11-10T11:32:59.364Z,99103.05
2018-11-10T11:35:29.074Z,99101.14
2018-11-10T11:37:58.679Z,99097.09
2018-11-10T11:40:28.344Z,99087.88
2018-11-10T11:42:57.977Z,99090.53
2018-11-10T11:45:27.627Z,99093.21
2018-11-10T11:47:57.271Z,99090.11
2018-11-10T11:50:26.971Z,99099.91
2018-11-10T11:52:56.612Z,99083.69
2018-11-10T11:55:26.307Z,99078.06
2018-11-10T11:57:56.025Z,99073.86
2018-11-10T12:00:25.676Z,99075.91
2018-11-10T12:02:55.311Z,99081.02
2018-11-10T12:05:24.963Z,99071.63
2018-11-10T12:07:54.621Z,99072.68
2018-11-10T12:10:24.299Z,99073.89
2018-11-10T12:12:53.939Z,99074.91
2018-11-10T12:15:23.641Z,99068.27
2018-11-10T12:17:53.254Z,99065.98
2018-11-10T12:20:22.916Z,99066.66
2018-11-10T12:22:52.560Z,99065.19
2018-11-10T12:25:22.185Z,99065.64
2018-11-10T12:27:51.844Z,99069.92
2018-11-10T12:30:21.492Z,99067.23
2018-11-10T12:32:51.166Z,99071.26
2018-11-10T12:35:20.808Z,99069.10
2018-11-10T12:37:50.463Z,99057.02
2018-11-10T12:40:20.131Z,99059.38
2018-11-10T12:42:49.797Z,99062.58
2018-11-10T12:45:19.469Z,99066.13
2018-11-10T12:47:49.151Z,99062.61
2018-11-10T12:50:18.834Z,99066.38
2018-11-10T12:52:48.493Z,99061.09
2018-11-10T12:55:18.194Z,99063.05
2018-11-10T12:57:48.043Z,99070.78
2018-11-10T13:00:18.147Z,99061.47
2018-11-10T13:02:47.811Z,99065.37
2018-11-10T13:05:17.436Z,99059.68
2018-11-10T13:07:47.864Z,99062.89
2018-11-10T13:10:17.490Z,99057.57
2018-11-10T13:12:47.168Z,99055.02
2018-11-10T13:15:16.788Z,99064.41
2018-11-10T13:17:46.521Z,99062.94
2018-11-10T13:20:16.656Z,99058.06
2018-11-10T13:22:46.279Z,99065.09
2018-11-10T13:25:15.914Z,99064.89
2018-11-10T13:27:45.567Z,99062.73
2018-11-10T13:30:15.860Z,99056.97
2018-11-10T13:32:45.544Z,99058.46
2018-11-10T13:35:15.199Z,99060.30
2018-11-10T13:37:44.878Z,99055.14
2018-11-10T13:40:14.520Z,99049.09
2018-11-10T13:42:44.172Z,99048.80
2018-11-10T13:45:14.540Z,99050.11
2018-11-10T13:47:44.216Z,99040.03
2018-11-10T13:50:13.864Z,99046.45
2018-11-10T13:52:43.965Z,99046.98
2018-11-10T13:55:13.985Z,99040.55
2018-11-10T13:57:43.689Z,99043.28
2018-11-10T14:00:14.915Z,99043.59
2018-11-10T14:02:44.815Z,99035.34
2018-11-10T14:05:14.971Z,99030.36
2018-11-10T14:07:44.651Z,99033.69
2018-11-10T14:10:15.341Z,99033.80
2018-11-10T14:12:45.999Z,99033.16
2018-11-10T14:15:15.584Z,99037.70
2018-11-10T14:17:45.295Z,99037.95
2018-11-10T14:20:15.955Z,99040.43
2018-11-10T14:22:46.411Z,99031.52
2018-11-10T14:25:16.719Z,99026.16
2018-11-10T14:27:46.660Z,99032.14
2018-11-10T14:30:17.471Z,99033.08
2018-11-10T14:32:47.515Z,99025.67
2018-11-10T14:35:17.141Z,99032.82
2018-11-10T14:37:46.822Z,99037.51
2018-11-10T14:40:17.568Z,99033.31
2018-11-10T14:42:47.516Z,99031.20
2018-11-10T14:45:18.622Z,99028.88
2018-11-10T14:47:48.364Z,99028.44
2018-11-10T14:50:18.678Z,99025.75
2018-11-10T14:52:48.488Z,99030.34
2018-11-10T14:55:18.011Z,99033.96
2018-11-10T14:57:47.694Z,99028.55
2018-11-10T15:00:19.068Z,99032.55
2018-11-10T15:02:48.696Z,99033.16
2018-11-10T15:05:18.359Z,99036.48
2018-11-10T15:07:48.083Z,99038.92
2018-11-10T15:10:18.323Z,99037.75
2018-11-10T15:12:48.386Z,99035.06
2018-11-10T15:15:18.900Z,99043.52
2018-11-10T15:17:48.727Z,99054.30
2018-11-10T15:20:19.270Z,99047.92
2018-11-10T15:22:48.989Z,99047.67
2018-11-10T15:25:19.989Z,99047.72
2018-11-10T15:27:49.659Z,99052.59
2018-11-10T15:30:20.623Z,99062.14
2018-11-10T15:32:50.804Z,99054.83
2018-11-10T15:35:21.532Z,99059.91
2018-11-10T15:37:52.282Z,99061.50
2018-11-10T15:40:22.549Z,99066.58
2018-11-10T15:42:52.258Z,99059.86
2018-11-10T15:45:22.086Z,99065.03
2018-11-10T15:47:51.712Z,99075.77
2018-11-10T15:50:21.423Z,99081.55
2018-11-10T15:52:51.076Z,99079.67
2018-11-10T15:55:20.699Z,99075.20
2018-11-10T15:57:50.415Z,99071.17
2018-11-10T16:00:20.559Z,99072.52
2018-11-10T16:02:50.267Z,99069.83
2018-11-10T16:05:19.883Z,99064.38
2018-11-10T16:07:49.500Z,99072.96
2018-11-10T16:10:19.259Z,99078.70
2018-11-10T16:12:48.844Z,99081.58
2018-11-10T16:15:18.907Z,99082.51
2018-11-10T16:17:48.614Z,99084.02
2018-11-10T16:20:19.415Z,99085.81
2018-11-10T16:22:51.180Z,99084.87
2018-11-10T16:25:20.827Z,99085.71
2018-11-10T16:27:50.478Z,99084.57
2018-11-10T16:30:20.636Z,99089.41
2018-11-10T16:32:50.833Z,99091.23
2018-11-10T16:35:20.487Z,99100.60
2018-11-10T16:37:50.155Z,99097.10
2018-11-10T16:40:20.714Z,99099.02
2018-11-10T16:42:50.707Z,99099.55
2018-11-10T16:45:21.171Z,99097.30
2018-11-10T16:47:50.831Z,99093.92
2018-11-10T16:50:20.506Z,99099.97
2018-11-10T16:52:50.131Z,99099.09
2018-11-10T16:55:19.955Z,99098.44
2018-11-10T16:57:49.504Z,99096.34
2018-11-10T17:00:20.091Z,99103.41
2018-11-10T17:02:49.726Z,99101.84
2018-11-10T17:05:19.475Z,99099.02
2018-11-10T17:07:49.128Z,99098.56
2018-11-10T17:10:19.175Z,99094.14
2018-11-10T17:12:48.811Z,99101.99
2018-11-10T17:15:18.515Z,99094.40
2018-11-10T17:17:48.388Z,99094.63
2018-11-10T17:20:18.088Z,99096.45
2018-11-10T17:22:47.865Z,99100.15
2018-11-10T17:25:17.465Z,99103.08
2018-11-10T17:27:47.157Z,99099.93
2018-11-10T17:30:18.552Z,99089.88
2018-11-10T17:32:48.131Z,99091.73
2018-11-10T17:35:18.739Z,99080.69
2018-11-10T17:37:48.410Z,99076.20
2018-11-10T17:40:18.185Z,99080.50
2018-11-10T17:42:47.883Z,99076.16
2018-11-10T17:45:18.667Z,99068.06
2018-11-10T17:47:48.335Z,99074.35
2018-11-10T17:50:18.727Z,99068.45
2018-11-10T17:52:48.529Z,99068.45
2018-11-10T17:55:18.443Z,99071.19
2018-11-10T17:57:48.376Z,99064.68
2018-11-10T18:00:18.388Z,99067.17
2018-11-10T18:02:48.023Z,99061.08
2018-11-10T18:05:17.839Z,99072.86
2018-11-10T18:07:47.475Z,99071.30
2018-11-10T18:10:18.167Z,99072.23
2018-11-10T18:12:47.850Z,99079.23
2018-11-10T18:15:17.557Z,99070.70
2018-11-10T18:17:47.222Z,99074.27
2018-11-10T18:20:17.718Z,99070.31
2018-11-10T18:22:47.651Z,99076.33
2018-11-10T18:25:17.354Z,99071.11
2018-11-10T18:27:47.047Z,99070.64
2018-11-10T18:30:16.744Z,99073.70
2018-11-10T18:32:46.445Z,99070.51
2018-11-10T18:35:16.215Z,99064.01
2018-11-10T18:37:45.879Z,99065.48
2018-11-10T18:40:15.539Z,99063.16
2018-11-10T18:42:45.214Z,99053.51
2018-11-10T18:45:14.883Z,99056.31
2018-11-10T18:47:44.547Z,99062.50
2018-11-10T18:50:16.048Z,99063.20
2018-11-10T18:52:45.776Z,99063.83
2018-11-10T18:55:16.076Z,99064.35
2018-11-10T18:57:46.094Z,99063.56
2018-11-10T19:00:16.839Z,99068.12
2018-11-10T19:02:46.494Z,99065.25
2018-11-10T19:05:17.192Z,99068.50
2018-11-10T19:07:46.851Z,99075.34
2018-11-10T19:10:17.623Z,99081.78
2018-11-10T19:12:47.333Z,99086.75
2018-11-10T19:15:19.003Z,99079.02
2018-11-10T19:17:48.684Z,99096.32
2018-11-10T19:20:18.772Z,99083.25
2018-11-10T19:22:48.494Z,99080.05
2018-11-10T19:25:18.224Z,99077.67
2018-11-10T19:27:47.831Z,99076.52
2018-11-10T19:30:18.839Z,99067.83
2018-11-10T19:32:49.271Z,99078.09
2018-11-10T19:35:19.544Z,99078.91
2018-11-10T19:37:49.251Z,99084.59
2018-11-10T19:40:18.912Z,99076.72
2018-11-10T19:42:48.701Z,99080.38
2018-11-10T19:45:18.383Z,99073.06
2018-11-10T19:47:48.031Z,99078.09
2018-11-10T19:50:17.787Z,99085.91
2018-11-10T19:52:47.383Z,99092.88
2018-11-10T19:55:17.809Z,99085.91
2018-11-10T19:57:47.444Z,99090.61
2018-11-10T20:00:21.424Z,99075.55
2018-11-10T20:02:51.068Z,99070.80
2018-11-10T20:05:20.743Z,99072.66
2018-11-10T20:07:50.424Z,99069.92
2018-11-10T20:10:20.091Z,99076.02
2018-11-10T20:12:49.731Z,99068.45
2018-11-10T20:15:19.426Z,99077.14
2018-11-10T20:17:49.104Z,99072.27
2018-11-10T20:20:19.441Z,99067.48
2018-11-10T20:22:49.098Z,99074.70
2018-11-10T20:25:19.558Z,99070.29
2018-11-10T20:27:49.196Z,99077.67
2018-11-10T20:30:20.132Z,99079.53
2018-11-10T20:32:49.922Z,99069.90
2018-11-10T20:35:19.592Z,99073.52
2018-11-10T20:37:49.212Z,99083.75
2018-11-10T20:40:18.852Z,99088.94
2018-11-10T20:42:48.483Z,99089.37
2018-11-10T20:45:19.923Z,99093.69
2018-11-10T20:47:49.588Z,99101.04
2018-11-10T20:50:19.723Z,99097.84
2018-11-10T20:52:49.390Z,99092.34
2018-11-10T20:55:19.056Z,99093.39
2018-11-10T20:57:48.734Z,99084.28
2018-11-10T21:00:20.460Z,99088.72
2018-11-10T21:02:49.959Z,99087.57
2018-11-10T21:05:19.612Z,99083.91
2018-11-10T21:07:49.340Z,99085.60
2018-11-10T21:10:20.233Z,99089.75
2018-11-10T21:12:50.596Z,99087.95
2018-11-10T21:15:20.952Z,99080.22
2018-11-10T21:17:50.623Z,99083.75
2018-11-10T21:20:20.387Z,99082.67
2018-11-10T21:22:49.992Z,99087.77
2018-11-10T21:25:19.735Z,99084.38
2018-11-10T21:27:49.492Z,99086.83
2018-11-10T21:30:20.300Z,99077.61
2018-11-10T21:32:50.275Z,99077.13
2018-11-10T21:35:19.988Z,99075.33
2018-11-10T21:37:49.636Z,99065.72
2018-11-10T21:40:20.494Z,99069.77
2018-11-10T21:42:50.159Z,99065.13
2018-11-10T21:45:19.784Z,99065.00
2018-11-10T21:47:49.462Z,99062.65
2018-11-10T21:50:20.254Z,99071.02
2018-11-10T21:52:49.919Z,99064.18
2018-11-10T21:55:20.291Z,99068.12
2018-11-10T21:57:50.451Z,99064.83
2018-11-10T22:00:21.353Z,99070.68
2018-11-10T22:02:51.251Z,99066.80
2018-11-10T22:05:21.193Z,99066.27
2018-11-10T22:07:50.887Z,99069.93
2018-11-10T22:10:20.826Z,99070.55
2018-11-10T22:12:50.492Z,99068.59
2018-11-10T22:15:21.478Z,99068.66
2018-11-10T22:17:51.228Z,99074.64
2018-11-10T22:20:22.232Z,99080.26
2018-11-10T22:22:51.991Z,99076.30
2018-11-10T22:25:22.008Z,99076.44
2018-11-10T22:27:52.952Z,99069.47
2018-11-10T22:30:23.237Z,99069.66
2018-11-10T22:32:52.967Z,99071.26
2018-11-10T22:35:22.619Z,99076.76
2018-11-10T22:37:52.263Z,99075.75
2018-11-10T22:40:22.501Z,99077.40
2018-11-10T22:42:52.159Z,99068.83
2018-11-10T22:45:22.436Z,99070.61
2018-11-10T22:47:52.745Z,99070.68
2018-11-10T22:50:23.704Z,99070.44
2018-11-10T22:52:53.388Z,99069.36
2018-11-10T22:55:23.046Z,99082.18
2018-11-10T22:57:52.668Z,99076.17
2018-11-10T23:00:25.436Z,99079.83
2018-11-10T23:02:57.396Z,99073.29
2018-11-10T23:05:27.206Z,99063.86
2018-11-10T23:07:56.858Z,99057.53
2018-11-10T23:10:26.499Z,99060.02
2018-11-10T23:12:56.151Z,99066.22
2018-11-10T23:15:25.805Z,99065.25
2018-11-10T23:17:55.464Z,99060.20
2018-11-10T23:20:25.104Z,99054.47
2018-11-10T23:22:54.767Z,99063.59
2018-11-10T23:25:24.440Z,99064.30
2018-11-10T23:27:54.091Z,99067.63
2018-11-10T23:30:24.235Z,99064.89
2018-11-10T23:32:53.939Z,99065.64
2018-11-10T23:35:23.594Z,99063.55
2018-11-10T23:37:53.244Z,99054.77
2018-11-10T23:40:22.875Z,99054.65
2018-11-10T23:42:52.559Z,99056.58
2018-11-10T23:45:22.201Z,99050.57
2018-11-10T23:47:51.825Z,99064.55
2018-11-10T23:50:21.478Z,99054.59
2018-11-10T23:52:51.091Z,99057.99
2018-11-10T23:55:20.704Z,99063.84
2018-11-10T23:57:50.382Z,99057.67
